createdAt,value
2022-10-26T00:00:32.850Z,19.80
2022-10-26T00:02:59.687Z,13.97
2022-10-26T00:05:26.837Z,14.17
2022-10-26T00:07:53.792Z,17.07
2022-10-26T00:10:22.045Z,14.57
2022-10-26T00:12:52.833Z,11.77
2022-10-26T00:15:20.322Z,12.17
2022-10-26T00:17:47.791Z,15.20
2022-10-26T00:20:15.212Z,16.57
2022-10-26T00:22:41.967Z,12.17
2022-10-26T00:25:09.116Z,9.67
2022-10-26T00:27:36.134Z,17.80
2022-10-26T00:30:04.655Z,12.60
2022-10-26T00:32:31.929Z,15.80
2022-10-26T00:35:06.105Z,12.70
2022-10-26T00:37:43.401Z,11.70
2022-10-26T00:40:10.486Z,8.70
2022-10-26T00:42:37.291Z,8.87
2022-10-26T00:45:06.934Z,7.43
2022-10-26T00:47:47.604Z,9.33
2022-10-26T00:50:29.506Z,8.27
2022-10-26T00:52:58.222Z,8.77
2022-10-26T00:55:27.159Z,7.80
2022-10-26T00:57:54.434Z,12.67
2022-10-26T01:00:21.622Z,9.77
2022-10-26T01:02:50.548Z,16.63
2022-10-26T01:05:18.259Z,10.10
2022-10-26T01:07:45.947Z,11.43
2022-10-26T01:10:14.213Z,12.33
2022-10-26T01:12:41.320Z,9.40
2022-10-26T01:15:08.683Z,13.60
2022-10-26T01:17:41.878Z,11.27
2022-10-26T01:20:08.727Z,11.27
2022-10-26T01:22:42.503Z,8.03
2022-10-26T01:25:09.363Z,6.93
2022-10-26T01:27:38.367Z,10.17
2022-10-26T01:30:14.032Z,8.97
2022-10-26T01:32:56.263Z,11.03
2022-10-26T01:35:25.799Z,12.43
2022-10-26T01:37:59.034Z,9.30
2022-10-26T01:40:31.169Z,6.33
2022-10-26T01:42:59.632Z,6.07
2022-10-26T01:45:27.847Z,9.03
2022-10-26T01:47:55.134Z,10.77
2022-10-26T01:50:23.203Z,11.90
2022-10-26T01:52:50.872Z,11.20
2022-10-26T01:55:36.116Z,7.60
2022-10-26T01:58:08.631Z,14.70
2022-10-26T02:00:39.059Z,10.40
2022-10-26T02:03:30.562Z,7.07
2022-10-26T02:06:16.015Z,8.47
2022-10-26T02:08:53.465Z,11.17
2022-10-26T02:11:28.491Z,9.53
2022-10-26T02:14:07.607Z,12.80
2022-10-26T02:16:54.215Z,9.83
2022-10-26T02:19:21.095Z,12.87
2022-10-26T02:21:50.670Z,10.50
2022-10-26T02:24:17.776Z,8.53
2022-10-26T02:26:46.693Z,10.93
2022-10-26T02:29:18.409Z,13.90
2022-10-26T02:31:46.698Z,12.70
2022-10-26T02:34:15.418Z,11.13
2022-10-26T02:36:44.172Z,5.93
2022-10-26T02:39:11.799Z,14.20
2022-10-26T02:41:39.825Z,11.23
2022-10-26T02:44:13.529Z,11.23
2022-10-26T02:46:40.886Z,8.20
2022-10-26T02:49:07.682Z,10.67
2022-10-26T02:51:37.669Z,16.80
2022-10-26T02:54:04.531Z,15.93
2022-10-26T02:56:36.888Z,9.97
2022-10-26T02:59:05.607Z,11.90
2022-10-26T03:01:34.102Z,15.47
2022-10-26T03:04:01.318Z,10.70
2022-10-26T03:06:28.241Z,17.47
2022-10-26T03:08:55.171Z,13.37
2022-10-26T03:11:21.933Z,13.60
2022-10-26T03:13:48.849Z,9.10
2022-10-26T03:16:15.624Z,12.27
2022-10-26T03:18:42.627Z,12.37
2022-10-26T03:21:09.406Z,13.27
2022-10-26T03:23:36.170Z,11.90
2022-10-26T03:26:03.007Z,10.27
2022-10-26T03:28:30.820Z,12.23
2022-10-26T03:30:57.574Z,15.93
2022-10-26T03:33:27.191Z,13.33
2022-10-26T03:35:56.181Z,15.13
2022-10-26T03:38:23.145Z,13.53
2022-10-26T03:40:49.878Z,10.57
2022-10-26T03:43:16.717Z,12.07
2022-10-26T03:45:43.540Z,10.47
2022-10-26T03:48:10.385Z,9.43
2022-10-26T03:50:37.135Z,14.87
2022-10-26T03:53:04.176Z,10.37
2022-10-26T03:55:30.945Z,11.97
2022-10-26T03:57:57.825Z,11.37
2022-10-26T04:00:24.715Z,18.03
2022-10-26T04:02:58.976Z,17.40
2022-10-26T04:05:26.525Z,12.50
2022-10-26T04:08:01.001Z,8.33
2022-10-26T04:10:28.302Z,20.23
2022-10-26T04:12:55.613Z,53.23
2022-10-26T04:15:22.589Z,33.30
2022-10-26T04:17:49.525Z,34.00
2022-10-26T04:20:16.541Z,43.03
2022-10-26T04:22:43.326Z,16.47
2022-10-26T04:25:11.573Z,10.17
2022-10-26T04:27:38.435Z,11.70
2022-10-26T04:30:08.437Z,11.87
2022-10-26T04:32:35.259Z,13.40
2022-10-26T04:35:01.989Z,12.03
2022-10-26T04:37:28.840Z,15.63
2022-10-26T04:39:55.622Z,52.70
2022-10-26T04:42:22.425Z,34.23
2022-10-26T04:44:49.332Z,25.60
2022-10-26T04:47:16.110Z,23.07
2022-10-26T04:49:42.917Z,21.60
2022-10-26T04:52:09.761Z,15.27
2022-10-26T04:54:36.527Z,15.87
2022-10-26T04:57:03.305Z,15.83
2022-10-26T04:59:30.172Z,10.30
2022-10-26T05:01:56.942Z,12.20
2022-10-26T05:04:23.846Z,12.17
2022-10-26T05:06:52.578Z,13.77
2022-10-26T05:09:19.416Z,13.37
2022-10-26T05:11:46.194Z,11.50
2022-10-26T05:14:13.426Z,12.17
2022-10-26T05:16:40.326Z,12.40
2022-10-26T05:19:07.161Z,14.43
2022-10-26T05:21:33.954Z,24.87
2022-10-26T05:24:01.287Z,33.57
2022-10-26T05:26:28.376Z,40.60
2022-10-26T05:28:55.139Z,16.93
2022-10-26T05:31:21.983Z,30.03
2022-10-26T05:33:49.455Z,31.63
2022-10-26T05:36:17.223Z,36.33
2022-10-26T05:38:43.957Z,35.53
2022-10-26T05:41:10.861Z,30.63
2022-10-26T05:43:37.584Z,23.50
2022-10-26T05:46:04.468Z,16.37
2022-10-26T05:48:31.317Z,35.87
2022-10-26T05:51:01.601Z,36.50
2022-10-26T05:53:28.740Z,34.27
2022-10-26T05:55:56.376Z,21.50
2022-10-26T05:58:23.747Z,29.43
2022-10-26T06:01:19.718Z,54.97
2022-10-26T06:03:49.353Z,37.00
2022-10-26T06:06:16.298Z,26.67
2022-10-26T06:08:43.236Z,20.10
2022-10-26T06:11:10.673Z,20.30
2022-10-26T06:13:37.642Z,20.93
2022-10-26T06:16:16.671Z,17.20
2022-10-26T06:18:43.532Z,18.93
2022-10-26T06:21:29.100Z,19.70
2022-10-26T06:24:05.104Z,20.33
2022-10-26T06:26:34.753Z,20.77
2022-10-26T06:29:11.164Z,16.70
2022-10-26T06:31:38.171Z,16.00
2022-10-26T06:34:05.019Z,15.03
2022-10-26T06:36:32.275Z,15.50
2022-10-26T06:39:01.585Z,17.40
2022-10-26T06:41:28.630Z,16.40
2022-10-26T06:43:55.749Z,18.70
2022-10-26T06:46:26.369Z,25.77
2022-10-26T06:49:03.874Z,29.90
2022-10-26T06:51:31.263Z,22.23
2022-10-26T06:54:06.497Z,28.50
2022-10-26T06:56:33.502Z,23.70
2022-10-26T06:59:07.827Z,20.43
2022-10-26T07:01:34.754Z,20.63
2022-10-26T07:04:01.642Z,20.80
2022-10-26T07:06:28.448Z,26.57
2022-10-26T07:08:55.352Z,21.63
2022-10-26T07:11:22.156Z,23.67
2022-10-26T07:13:50.853Z,21.93
2022-10-26T07:16:17.779Z,17.10
2022-10-26T07:18:44.943Z,16.20
2022-10-26T07:21:11.753Z,13.37
2022-10-26T07:23:38.479Z,16.23
2022-10-26T07:26:05.413Z,52.30
2022-10-26T07:28:32.243Z,14.63
2022-10-26T07:30:59.463Z,13.73
2022-10-26T07:33:26.228Z,16.13
2022-10-26T07:35:54.453Z,14.30
2022-10-26T07:38:21.268Z,15.17
2022-10-26T07:40:49.278Z,15.90
2022-10-26T07:43:16.496Z,20.20
2022-10-26T07:45:43.286Z,16.57
2022-10-26T07:48:10.125Z,16.87
2022-10-26T07:50:36.944Z,21.27
2022-10-26T07:53:04.132Z,17.20
2022-10-26T07:55:31.065Z,17.23
2022-10-26T07:57:58.271Z,15.00
2022-10-26T08:00:26.234Z,14.87
2022-10-26T08:02:53.145Z,18.27
2022-10-26T08:05:20.228Z,17.87
2022-10-26T08:07:47.251Z,18.10
2022-10-26T08:10:14.860Z,18.97
2022-10-26T08:12:42.278Z,17.50
2022-10-26T08:15:09.210Z,15.47
2022-10-26T08:17:36.084Z,13.57
2022-10-26T08:20:03.206Z,15.50
2022-10-26T08:22:30.996Z,14.60
2022-10-26T08:24:57.746Z,15.93
2022-10-26T08:27:24.684Z,12.00
2022-10-26T08:29:51.463Z,16.90
2022-10-26T08:32:18.351Z,16.20
2022-10-26T08:34:45.088Z,15.47
2022-10-26T08:37:11.997Z,14.17
2022-10-26T08:39:38.737Z,14.43
2022-10-26T08:42:17.518Z,13.00
2022-10-26T08:44:47.742Z,13.70
2022-10-26T08:47:14.553Z,15.60
2022-10-26T08:49:45.620Z,14.53
2022-10-26T08:52:15.625Z,14.60
2022-10-26T08:54:44.457Z,16.17
2022-10-26T08:57:17.092Z,15.90
2022-10-26T08:59:49.568Z,19.40
2022-10-26T09:02:17.223Z,17.83
2022-10-26T09:04:44.563Z,13.83
2022-10-26T09:07:29.731Z,18.60
2022-10-26T09:10:02.388Z,14.93
2022-10-26T09:12:43.075Z,14.50
2022-10-26T09:15:09.900Z,16.10
2022-10-26T09:17:39.708Z,13.53
2022-10-26T09:20:09.710Z,10.30
2022-10-26T09:22:36.448Z,11.07
2022-10-26T09:25:10.802Z,13.40
2022-10-26T09:27:42.542Z,10.63
2022-10-26T09:30:14.230Z,12.97
2022-10-26T09:32:44.701Z,8.20
2022-10-26T09:35:14.417Z,8.23
2022-10-26T09:37:47.252Z,7.40
2022-10-26T09:40:31.809Z,6.20
2022-10-26T09:43:02.923Z,9.53
2022-10-26T09:45:32.977Z,8.30
2022-10-26T09:48:20.044Z,7.23
2022-10-26T09:50:49.086Z,9.50
2022-10-26T09:53:16.045Z,8.03
2022-10-26T09:55:45.376Z,5.10
2022-10-26T09:58:24.538Z,4.83
2022-10-26T10:00:51.938Z,6.63
2022-10-26T10:03:26.163Z,6.30
2022-10-26T10:05:53.296Z,6.27
2022-10-26T10:08:26.952Z,7.47
2022-10-26T10:10:59.742Z,7.33
2022-10-26T10:13:30.834Z,10.83
2022-10-26T10:16:17.812Z,9.37
2022-10-26T10:18:52.910Z,6.97
2022-10-26T10:21:19.797Z,5.13
2022-10-26T10:23:49.155Z,5.37
2022-10-26T10:26:16.046Z,10.37
2022-10-26T10:28:43.025Z,6.27
2022-10-26T10:31:30.128Z,12.20
2022-10-26T10:33:57.176Z,4.47
2022-10-26T10:36:25.821Z,5.03
2022-10-26T10:38:54.027Z,5.97
2022-10-26T10:41:26.932Z,6.30
2022-10-26T10:43:55.638Z,4.37
2022-10-26T10:46:24.691Z,6.70
2022-10-26T10:48:53.531Z,4.27
2022-10-26T10:51:22.732Z,9.80
2022-10-26T10:53:49.455Z,6.40
2022-10-26T10:56:23.860Z,4.77
2022-10-26T10:58:53.406Z,4.23
2022-10-26T11:01:23.100Z,5.27
2022-10-26T11:04:11.461Z,7.03
2022-10-26T11:06:39.499Z,5.87
2022-10-26T11:09:11.887Z,7.53
2022-10-26T11:11:44.687Z,7.70
2022-10-26T11:14:16.144Z,5.97
2022-10-26T11:16:45.150Z,3.27
2022-10-26T11:19:30.395Z,4.80
2022-10-26T11:21:57.520Z,4.13
2022-10-26T11:24:31.088Z,2.13
2022-10-26T11:27:04.694Z,2.47
2022-10-26T11:29:39.886Z,4.77
2022-10-26T11:32:14.270Z,5.77
2022-10-26T11:34:45.294Z,6.97
2022-10-26T11:37:15.151Z,3.00
2022-10-26T11:39:46.002Z,4.43
2022-10-26T11:42:26.413Z,3.50
2022-10-26T11:44:59.719Z,5.10
2022-10-26T11:47:38.647Z,7.50
2022-10-26T11:50:17.505Z,2.90
2022-10-26T11:52:45.128Z,2.77
2022-10-26T11:55:11.931Z,2.70
2022-10-26T11:57:38.861Z,3.47
2022-10-26T12:00:06.051Z,5.30
2022-10-26T12:02:38.601Z,3.57
2022-10-26T12:05:16.744Z,5.20
2022-10-26T12:08:13.101Z,8.30
2022-10-26T12:10:41.610Z,3.97
2022-10-26T12:13:08.404Z,12.23
2022-10-26T12:18:50.402Z,7.60
2022-10-26T12:21:18.014Z,12.43
2022-10-26T12:23:55.494Z,3.70
2022-10-26T12:26:28.430Z,5.03
2022-10-26T12:29:15.528Z,5.17
2022-10-26T12:31:43.383Z,3.50
2022-10-26T12:34:23.542Z,5.27
2022-10-26T12:36:56.196Z,15.63
2022-10-26T12:39:43.346Z,8.47
2022-10-26T12:42:10.608Z,4.13
2022-10-26T12:44:39.790Z,3.57
2022-10-26T12:47:07.291Z,3.83
2022-10-26T12:49:52.859Z,5.63
2022-10-26T12:52:20.958Z,5.23
2022-10-26T12:55:06.478Z,18.23
2022-10-26T12:57:37.896Z,4.33
2022-10-26T13:00:06.138Z,4.07
2022-10-26T13:02:56.423Z,23.07
2022-10-26T13:05:33.386Z,30.27
2022-10-26T13:08:18.633Z,87.63
2022-10-26T13:11:06.006Z,155.17
2022-10-26T13:13:33.567Z,369.37
2022-10-26T13:16:01.334Z,253.33
2022-10-26T13:18:28.239Z,74.57
2022-10-26T13:21:04.346Z,13.17
2022-10-26T13:23:32.515Z,34.93
2022-10-26T13:26:03.951Z,7.40
2022-10-26T13:28:51.085Z,6.80
2022-10-26T13:31:33.007Z,26.27
2022-10-26T13:34:13.024Z,18.07
2022-10-26T13:36:50.334Z,57.87
2022-10-26T13:39:29.167Z,11.43
2022-10-26T13:41:56.492Z,29.90
2022-10-26T13:44:26.153Z,5.60
2022-10-26T13:46:59.664Z,10.80
2022-10-26T13:49:31.372Z,7.50
2022-10-26T13:52:01.107Z,8.40
2022-10-26T13:54:44.854Z,9.07
2022-10-26T13:57:15.564Z,10.70
2022-10-26T13:59:44.134Z,11.03
2022-10-26T14:02:24.592Z,5.07
2022-10-26T14:05:00.007Z,9.90
2022-10-26T14:07:32.262Z,5.27
2022-10-26T14:09:59.204Z,8.83
2022-10-26T14:12:28.516Z,59.43
2022-10-26T14:15:00.171Z,8.63
2022-10-26T14:17:26.949Z,5.87
2022-10-26T14:19:54.097Z,7.63
2022-10-26T14:22:25.113Z,4.57
2022-10-26T14:24:53.343Z,5.67
2022-10-26T14:27:40.408Z,14.93
2022-10-26T14:30:23.475Z,6.37
2022-10-26T14:32:51.774Z,6.47
2022-10-26T14:35:30.164Z,6.47
2022-10-26T14:38:23.203Z,10.23
2022-10-26T14:40:52.628Z,7.17
2022-10-26T14:43:22.861Z,10.00
2022-10-26T14:45:51.376Z,7.37
2022-10-26T14:48:28.668Z,7.73
2022-10-26T14:51:14.054Z,9.63
2022-10-26T14:53:41.576Z,9.13
2022-10-26T14:56:28.829Z,5.67
2022-10-26T14:58:56.451Z,6.73
2022-10-26T15:01:23.365Z,8.00
2022-10-26T15:04:00.738Z,9.17
2022-10-26T15:06:44.134Z,8.07
2022-10-26T15:09:37.829Z,6.53
2022-10-26T15:12:05.073Z,10.90
2022-10-26T15:14:32.037Z,6.97
2022-10-26T15:16:59.584Z,4.37
2022-10-26T15:19:27.441Z,6.80
2022-10-26T15:21:54.783Z,8.60
2022-10-26T15:24:21.526Z,8.60
2022-10-26T15:26:48.530Z,7.93
2022-10-26T15:29:33.822Z,12.13
2022-10-26T15:32:01.223Z,7.60
2022-10-26T15:34:28.079Z,2.43
2022-10-26T15:36:54.899Z,6.10
2022-10-26T15:39:22.626Z,4.73
2022-10-26T15:41:49.623Z,4.17
2022-10-26T15:44:21.536Z,4.90
2022-10-26T15:46:49.671Z,11.20
2022-10-26T15:49:17.924Z,19.43
2022-10-26T15:51:45.592Z,6.23
2022-10-26T15:54:12.451Z,10.80
2022-10-26T15:56:39.969Z,6.40
2022-10-26T15:59:19.649Z,8.47
2022-10-26T16:01:46.797Z,8.47
2022-10-26T16:04:13.739Z,12.87
2022-10-26T16:06:41.918Z,3.37
2022-10-26T16:09:11.693Z,6.83
2022-10-26T16:11:38.874Z,5.23
2022-10-26T16:14:05.749Z,48.97
2022-10-26T16:16:32.792Z,7.87
2022-10-26T16:19:18.445Z,50.70
2022-10-26T16:21:45.723Z,35.53
2022-10-26T16:24:12.747Z,13.17
2022-10-26T16:26:39.513Z,14.87
2022-10-26T16:29:08.695Z,16.13
2022-10-26T16:31:35.470Z,27.80
2022-10-26T16:34:04.196Z,136.83
2022-10-26T16:36:34.239Z,48.53
2022-10-26T16:41:29.035Z,88.20
2022-10-26T16:43:56.234Z,74.57
2022-10-26T16:46:23.102Z,55.33
2022-10-26T16:48:50.221Z,68.40
2022-10-26T16:51:19.017Z,37.90
2022-10-26T16:53:49.754Z,50.70
2022-10-26T16:56:18.711Z,24.73
2022-10-26T16:58:45.760Z,20.23
2022-10-26T17:01:13.651Z,29.60
2022-10-26T17:03:40.541Z,16.10
2022-10-26T17:06:07.821Z,21.40
2022-10-26T17:08:35.256Z,19.97
2022-10-26T17:11:06.572Z,29.23
2022-10-26T17:13:33.333Z,23.13
2022-10-26T17:16:04.407Z,30.97
2022-10-26T17:18:31.734Z,35.70
2022-10-26T17:20:58.480Z,35.17
2022-10-26T17:23:25.269Z,24.67
2022-10-26T17:25:52.113Z,16.73
2022-10-26T17:28:19.460Z,17.33
2022-10-26T17:30:47.800Z,15.67
2022-10-26T17:33:14.715Z,22.87
2022-10-26T17:35:41.510Z,21.10
2022-10-26T17:38:08.386Z,14.23
2022-10-26T17:40:35.157Z,114.23
2022-10-26T17:43:02.074Z,28.27
2022-10-26T17:45:28.847Z,26.03
2022-10-26T17:47:55.612Z,22.57
2022-10-26T17:50:22.446Z,21.33
2022-10-26T17:52:49.195Z,18.47
2022-10-26T17:55:16.131Z,24.17
2022-10-26T17:57:42.900Z,15.97
2022-10-26T18:00:09.989Z,16.87
2022-10-26T18:02:40.382Z,12.37
2022-10-26T18:05:07.914Z,12.27
2022-10-26T18:07:34.802Z,14.03
2022-10-26T18:10:19.509Z,13.87
2022-10-26T18:12:49.096Z,14.47
2022-10-26T18:15:16.200Z,16.17
2022-10-26T18:17:43.881Z,15.90
2022-10-26T18:20:11.175Z,16.00
2022-10-26T18:22:38.036Z,12.63
2022-10-26T18:25:04.918Z,15.10
2022-10-26T18:27:32.085Z,16.77
2022-10-26T18:29:58.864Z,14.17
2022-10-26T18:32:25.729Z,21.40
2022-10-26T18:34:52.479Z,27.70
2022-10-26T18:37:19.234Z,23.90
2022-10-26T18:39:46.088Z,33.53
2022-10-26T18:42:13.115Z,36.80
2022-10-26T18:44:40.115Z,34.87
2022-10-26T18:47:06.887Z,26.43
2022-10-26T18:49:33.774Z,16.13
2022-10-26T18:52:00.634Z,15.87
2022-10-26T18:54:29.618Z,16.67
2022-10-26T18:56:57.910Z,18.07
2022-10-26T18:59:24.684Z,15.87
2022-10-26T19:01:51.764Z,9.87
2022-10-26T19:04:18.772Z,11.37
2022-10-26T19:06:47.550Z,12.70
2022-10-26T19:09:18.386Z,10.37
2022-10-26T19:11:45.340Z,11.60
2022-10-26T19:14:12.592Z,12.07
2022-10-26T19:16:45.914Z,9.53
2022-10-26T19:19:14.557Z,13.33
2022-10-26T19:21:41.380Z,14.07
2022-10-26T19:24:12.110Z,18.87
2022-10-26T19:26:43.180Z,17.37
2022-10-26T19:29:13.948Z,27.53
2022-10-26T19:31:41.832Z,29.80
2022-10-26T19:34:10.251Z,23.23
2022-10-26T19:36:37.183Z,32.73
2022-10-26T19:39:04.094Z,24.57
2022-10-26T19:41:31.485Z,90.53
2022-10-26T19:46:27.693Z,84.97
2022-10-26T19:48:55.651Z,63.50
2022-10-26T19:51:22.948Z,49.90
2022-10-26T19:53:49.762Z,40.20
2022-10-26T19:56:17.524Z,46.70
2022-10-26T19:58:44.881Z,39.20
2022-10-26T20:01:13.121Z,43.80
2022-10-26T20:03:40.390Z,18.90
2022-10-26T20:06:11.444Z,26.23
2022-10-26T20:08:39.247Z,26.67
2022-10-26T20:11:09.040Z,50.73
2022-10-26T20:13:39.543Z,40.57
2022-10-26T20:16:08.013Z,38.93
2022-10-26T20:18:35.592Z,32.87
2022-10-26T20:21:07.166Z,36.90
2022-10-26T20:23:34.842Z,30.20
2022-10-26T20:26:03.549Z,27.73
2022-10-26T20:28:31.253Z,31.33
2022-10-26T20:30:59.630Z,28.40
2022-10-26T20:33:27.443Z,25.20
2022-10-26T20:36:01.101Z,21.07
2022-10-26T20:38:28.803Z,30.57
2022-10-26T20:40:57.616Z,12.87
2022-10-26T20:43:25.508Z,16.60
2022-10-26T20:45:52.957Z,17.70
2022-10-26T20:48:20.110Z,21.63
2022-10-26T20:50:50.147Z,24.67
2022-10-26T20:53:32.741Z,20.67
2022-10-26T20:56:01.008Z,18.23
2022-10-26T20:58:46.855Z,20.50
2022-10-26T21:01:23.037Z,22.63
2022-10-26T21:03:50.525Z,21.57
2022-10-26T21:06:17.350Z,20.97
2022-10-26T21:08:44.494Z,15.87
2022-10-26T21:11:11.827Z,21.80
2022-10-26T21:13:38.563Z,23.30
2022-10-26T21:16:08.572Z,18.37
2022-10-26T21:18:36.445Z,26.37
2022-10-26T21:21:03.863Z,21.33
2022-10-26T21:23:31.962Z,21.17
2022-10-26T21:25:58.875Z,23.33
2022-10-26T21:28:27.210Z,20.50
2022-10-26T21:30:54.594Z,18.93
2022-10-26T21:33:24.086Z,22.63
2022-10-26T21:35:55.027Z,18.30
2022-10-26T21:38:22.076Z,20.27
2022-10-26T21:40:48.826Z,24.20
2022-10-26T21:43:16.914Z,21.03
2022-10-26T21:45:44.051Z,20.67
2022-10-26T21:48:10.825Z,17.27
2022-10-26T21:50:37.715Z,17.97
2022-10-26T21:53:04.435Z,20.87
2022-10-26T21:55:31.215Z,19.67
2022-10-26T21:57:58.131Z,23.30
2022-10-26T22:00:25.487Z,27.30
2022-10-26T22:02:53.241Z,21.70
2022-10-26T22:05:20.869Z,25.63
2022-10-26T22:07:48.219Z,24.57
2022-10-26T22:10:15.266Z,22.50
2022-10-26T22:12:42.110Z,21.57
2022-10-26T22:15:09.357Z,26.97
2022-10-26T22:17:37.354Z,26.33
2022-10-26T22:20:04.731Z,29.40
2022-10-26T22:22:31.726Z,30.70
2022-10-26T22:24:59.264Z,27.93
2022-10-26T22:27:27.041Z,28.43
2022-10-26T22:29:54.469Z,31.37
2022-10-26T22:32:22.137Z,29.13
2022-10-26T22:34:50.746Z,20.23
2022-10-26T22:37:24.086Z,24.80
2022-10-26T22:39:50.904Z,28.83
2022-10-26T22:42:17.697Z,27.90
2022-10-26T22:44:44.983Z,26.60
2022-10-26T22:47:13.167Z,28.83
2022-10-26T22:49:40.224Z,30.37
2022-10-26T22:52:07.104Z,38.50
2022-10-26T22:54:34.694Z,36.97
2022-10-26T22:57:01.627Z,40.53
2022-10-26T22:59:28.480Z,27.87
2022-10-26T23:01:56.066Z,28.70
2022-10-26T23:04:23.485Z,27.70
2022-10-26T23:06:50.711Z,30.67
2022-10-26T23:09:18.190Z,41.97
2022-10-26T23:11:45.407Z,38.07
2022-10-26T23:14:12.554Z,35.70
2022-10-26T23:16:40.219Z,30.70
2022-10-26T23:19:09.360Z,27.43
2022-10-26T23:21:37.263Z,27.30
2022-10-26T23:24:05.239Z,23.83
2022-10-26T23:26:32.104Z,24.27
2022-10-26T23:28:59.186Z,26.80
2022-10-26T23:31:27.064Z,30.10
2022-10-26T23:33:55.059Z,25.07
2022-10-26T23:36:22.724Z,27.60
2022-10-26T23:38:50.228Z,27.23
2022-10-26T23:41:17.775Z,27.40
2022-10-26T23:43:45.026Z,28.83
2022-10-26T23:46:12.042Z,28.80
2022-10-26T23:48:39.317Z,25.10
2022-10-26T23:51:06.657Z,27.10
2022-10-26T23:53:34.305Z,28.80
2022-10-26T23:56:02.305Z,31.23
2022-10-26T23:58:29.517Z,32.67
